Putney, South Dakota
Current Conditions -  °F | °C
As of 2:53 PM on Monday 24 Nov 2014 (Local Time) from KABR Reporting Station
Clear Clear  
Wind Chill: 12°   Ceiling: Unl
Heat Index: 27°   Visibility: 10mi
Dew Point: 13°   Wind: 23mph
Humidity: 56%   Direction: 330°NNW
Pressure: 29.88"   Gusts: 35mph
Location:  45.4583°N, 98.1109°W
Report Text: KABR 242053Z AUTO 33020G30KT 10SM CLR M03/M11 A2988 RMK AO2 PK WND 33030/2045 SLP137 T10281106 53020
Loading
Personal Weather Stations






























Interactive Weather Map New forecast layout! Learn more

10-Day Weather Forecast

Advertisements
Track Severe Weather on mobile